Terminal Aerodrome Forecast
Issued by NWS

Home | Current Version | Previous Version | Text Only | Print | Product List | Glossary On
Versions: 1 2 3 4 5 6 7 8 9 10 11 12 13 14 15 16
000
FTUS45 KFGZ 031141
TAFPRC
TAF
KPRC 031141Z 0312/0412 20005KT P6SM VCSH SCT070 BKN090
      TEMPO 0312/0313 VRB15G25KT -SHRA BKN060
     FM031500 VRB05KT P6SM SCT060 BKN080
     FM031800 19008G15KT P6SM BKN080
     FM040200 20005KT P6SM SCT080=

USA.gov is the U.S. government's official web portal to all federal, state and local government web resources and services.